Ambrose, Georgia
Current Conditions -  °F | °C
As of 8:55 PM on Monday 24 Nov 2014 (Local Time) from KDQH Reporting Station
Thunderstorm Thunderstorm  
Wind Chill: 18°   Ceiling: 9000
Heat Index: 18°   Visibility: 7mi
Dew Point: 17°   Wind: 5mph
Humidity: 94%   Direction: 230°SW
Pressure: 29.99"   Gusts: NA
Location:  31.59°N, 83.01°W
Report Text: KDQH 250155Z AUTO 23004KT 7SM VCTS BKN090 BKN100 18/17 A2999 RMK AO2 LTG DSNT E THRU SW
Loading
Personal Weather Stations






























Interactive Weather Map New forecast layout! Learn more

10-Day Weather Forecast

Advertisements
Track Severe Weather on mobile